Time;durP1;ratioP1;P1;durP2;ratioP2;P2;SDS_P1;SDS_P2;PMS_P1;PMS_P2;Temp;Humidity;BMP_temperature;BMP_pressure;BME280_temperature;BME280_humidity;BME280_pressure;Samples;Min_cycle;Max_cycle;Signal;HPM_P1;HPM_P2
2024/03/12 00:02:25;;;;;;;;;;;;;;;17.21;47.13;100763.59;5037668;28;1051;-47
2024/03/12 00:04:50;;;;;;;;;;;;;;;17.79;47.50;100752.97;5037338;28;1125;-45
2024/03/12 00:07:20;;;;;;;;;;;;;;;17.45;47.95;100744.56;5036683;28;1957;-47
2024/03/12 00:09:46;;;;;;;;;;;;;;;19.13;45.21;100729.97;5037694;28;1055;-48
2024/03/12 00:12:12;;;;;;;;;;;;;;;17.98;47.29;100730.34;5036690;28;1048;-45
2024/03/12 00:14:39;;;;;;;;;;;;;;;17.47;47.32;100720.34;5037462;28;1055;-45
2024/03/12 00:17:06;;;;;;;;;;;;;;;18.38;47.00;100724.84;5033803;28;1012;-47
2024/03/12 00:19:33;;;;;;;;;;;;;;;17.79;47.51;100711.72;5036898;28;1007;-48
2024/03/12 00:21:58;;;;;;;;;;;;;;;17.45;47.24;100706.91;5037508;28;1199;-47
2024/03/12 00:24:24;;;;;;;;;;;;;;;18.67;46.23;100693.75;5029317;28;2408;-46
2024/03/12 00:26:49;;;;;;;;;;;;;;;17.69;47.76;100695.25;5037107;28;1095;-45
2024/03/12 00:29:16;;;;;;;;;;;;;;;17.59;47.83;100693.38;5036920;28;1984;-47
2024/03/12 00:31:42;;;;;;;;;;;;;;;18.27;46.70;100702.06;5037292;28;1015;-47
2024/03/12 00:34:10;;;;;;;;;;;;;;;17.47;47.42;100700.31;5035224;28;1120;-45
2024/03/12 00:36:36;;;;;;;;;;;;;;;17.77;47.69;100704.84;5026690;28;1179;-46
2024/03/12 00:39:02;;;;;;;;;;;;;;;17.93;47.23;100692.66;5034894;28;1099;-48
2024/03/12 00:41:28;;;;;;;;;;;;;;;17.39;47.43;100697.03;5026269;28;1130;-44
2024/03/12 00:43:54;;;;;;;;;;;;;;;18.60;46.18;100689.41;5036896;28;1051;-46
2024/03/12 00:46:21;;;;;;;;;;;;;;;17.63;47.82;100685.38;5036670;28;1020;-44
2024/03/12 00:48:46;;;;;;;;;;;;;;;19.13;45.28;100687.81;5036534;28;1914;-45
2024/03/12 00:51:12;;;;;;;;;;;;;;;16.20;51.69;100695.50;5036975;28;1164;-49
2024/03/12 00:53:38;;;;;;;;;;;;;;;18.09;47.91;100685.13;5036458;28;2731;-46
2024/03/12 00:56:03;;;;;;;;;;;;;;;19.54;44.15;100692.00;5036408;28;1061;-47
2024/03/12 00:58:29;;;;;;;;;;;;;;;15.73;53.99;100691.84;5036521;28;1155;-44
2024/03/12 01:00:54;;;;;;;;;;;;;;;18.97;45.56;100681.63;5028291;28;1000;-47
2024/03/12 01:03:20;;;;;;;;;;;;;;;16.76;50.39;100665.31;5031202;28;1122;-45
2024/03/12 01:05:46;;;;;;;;;;;;;;;17.71;48.91;100662.78;5035396;28;1076;-47
2024/03/12 01:08:11;;;;;;;;;;;;;;;19.59;43.96;100658.84;5036419;28;1980;-46
2024/03/12 01:10:37;;;;;;;;;;;;;;;15.44;54.01;100645.69;5035368;28;1044;-44
2024/03/12 01:13:08;;;;;;;;;;;;;;;18.86;45.72;100634.06;5036259;28;1048;-47
2024/03/12 01:15:34;;;;;;;;;;;;;;;17.26;49.31;100616.03;5036248;28;1146;-45
2024/03/12 01:18:00;;;;;;;;;;;;;;;17.47;49.43;100612.34;5035860;28;1087;-47
2024/03/12 01:20:26;;;;;;;;;;;;;;;19.51;44.15;100596.88;5036415;28;1076;-46
2024/03/12 01:22:53;;;;;;;;;;;;;;;15.37;54.10;100595.81;5036334;28;1012;-46
2024/03/12 01:25:22;;;;;;;;;;;;;;;18.75;46.09;100600.28;5034918;28;2433;-42
2024/03/12 01:27:47;;;;;;;;;;;;;;;18.07;47.00;100593.78;5022827;28;1985;-47
2024/03/12 01:30:16;;;;;;;;;;;;;;;17.08;50.62;100595.50;5035719;28;820;-46
2024/03/12 01:32:45;;;;;;;;;;;;;;;19.53;44.19;100594.66;5034929;28;1060;-45
2024/03/12 01:35:13;;;;;;;;;;;;;;;15.79;52.82;100602.22;5036394;28;1035;-45
2024/03/12 01:37:41;;;;;;;;;;;;;;;18.71;46.27;100615.75;5036389;28;1011;-47
2024/03/12 01:40:19;;;;;;;;;;;;;;;18.69;45.41;100619.91;5035993;28;1047;-44
2024/03/12 01:42:51;;;;;;;;;;;;;;;16.50;51.35;100622.53;5029678;28;1166;-47
2024/03/12 01:45:17;;;;;;;;;;;;;;;19.26;45.02;100639.41;5036272;28;1127;-44
2024/03/12 01:47:45;;;;;;;;;;;;;;;15.52;53.54;100631.47;5023156;28;1910;-47
2024/03/12 01:50:11;;;;;;;;;;;;;;;18.58;46.75;100642.06;5035964;28;1060;-47
2024/03/12 01:52:36;;;;;;;;;;;;;;;18.57;45.84;100639.59;5034870;28;1111;-44
2024/03/12 01:55:02;;;;;;;;;;;;;;;16.72;51.42;100642.25;5053342;28;1011;-45
2024/03/12 01:57:27;;;;;;;;;;;;;;;19.41;44.46;100630.94;5035850;28;1206;-46
2024/03/12 01:59:53;;;;;;;;;;;;;;;15.98;52.42;100608.84;5022808;28;1445;-45
2024/03/12 02:02:18;;;;;;;;;;;;;;;18.45;46.95;100601.44;5035594;28;1036;-48
2024/03/12 02:04:44;;;;;;;;;;;;;;;19.49;43.85;100599.13;5023175;28;1158;-44
2024/03/12 02:07:11;;;;;;;;;;;;;;;16.22;52.73;100589.09;5030025;28;1909;-48
2024/03/12 02:09:37;;;;;;;;;;;;;;;19.34;44.50;100589.13;5035655;28;1167;-47
2024/03/12 02:12:03;;;;;;;;;;;;;;;16.66;50.66;100582.97;5035397;28;1031;-48
2024/03/12 02:14:29;;;;;;;;;;;;;;;17.88;48.56;100590.06;5035716;28;1170;-46
2024/03/12 02:16:55;;;;;;;;;;;;;;;19.72;43.77;100583.59;5022948;28;1144;-45
2024/03/12 02:19:21;;;;;;;;;;;;;;;15.54;54.32;100585.47;5035186;28;877;-44
2024/03/12 02:21:46;;;;;;;;;;;;;;;19.12;45.07;100584.19;5028828;28;1143;-47
2024/03/12 02:24:12;;;;;;;;;;;;;;;17.12;49.44;100578.44;5029293;28;1079;-46
2024/03/12 02:26:37;;;;;;;;;;;;;;;17.83;48.64;100584.63;5028872;28;949;-44
2024/03/12 02:29:07;;;;;;;;;;;;;;;19.74;43.53;100573.09;5029270;28;1910;-50
2024/03/12 02:31:34;;;;;;;;;;;;;;;15.34;54.19;100568.97;5038859;28;846;-46
2024/03/12 02:33:59;;;;;;;;;;;;;;;19.03;45.24;100573.00;5039229;28;1055;-46
2024/03/12 02:36:25;;;;;;;;;;;;;;;17.58;47.93;100569.94;5039312;28;1182;-43
2024/03/12 02:38:50;;;;;;;;;;;;;;;17.27;49.88;100586.59;5039593;28;1146;-45
2024/03/12 02:41:16;;;;;;;;;;;;;;;19.60;43.85;100581.31;5038984;28;1134;-44
2024/03/12 02:43:41;;;;;;;;;;;;;;;15.66;53.42;100570.69;5039293;28;858;-50
2024/03/12 02:46:10;;;;;;;;;;;;;;;18.87;45.84;100566.84;5039702;28;1192;-47
2024/03/12 02:48:36;;;;;;;;;;;;;;;18.45;46.02;100560.97;5039389;28;1938;-49
2024/03/12 02:51:02;;;;;;;;;;;;;;;17.15;50.23;100577.88;5038842;28;1070;-49
2024/03/12 02:53:27;;;;;;;;;;;;;;;19.64;44.01;100582.34;5025561;28;1114;-48
2024/03/12 02:55:53;;;;;;;;;;;;;;;16.05;51.94;100579.22;5038682;28;1200;-43
2024/03/12 02:58:25;;;;;;;;;;;;;;;18.66;46.19;100573.69;5039063;28;1238;-45
2024/03/12 03:00:50;;;;;;;;;;;;;;;19.24;44.25;100568.03;5038980;28;1168;-44
2024/03/12 03:03:16;;;;;;;;;;;;;;;16.43;52.21;100584.38;5037326;28;1150;-46
2024/03/12 03:05:43;;;;;;;;;;;;;;;19.44;44.20;100580.69;5026889;28;1068;-45
2024/03/12 03:08:10;;;;;;;;;;;;;;;16.25;51.59;100575.63;5038719;28;1906;-45
2024/03/12 03:10:36;;;;;;;;;;;;;;;18.47;47.05;100571.69;5038742;28;1051;-46
2024/03/12 03:13:01;;;;;;;;;;;;;;;19.95;43.05;100572.78;5038643;28;1201;-49
2024/03/12 03:15:27;;;;;;;;;;;;;;;16.08;53.03;100578.66;5039040;28;1082;-43
2024/03/12 03:17:52;;;;;;;;;;;;;;;19.39;44.46;100568.94;5038313;28;1075;-45
2024/03/12 03:20:18;;;;;;;;;;;;;;;16.93;49.68;100551.63;5038229;28;908;-44
2024/03/12 03:22:44;;;;;;;;;;;;;;;18.07;47.89;100555.25;5038614;28;1088;-45
2024/03/12 03:25:11;;;;;;;;;;;;;;;19.96;43.13;100557.88;5038598;28;1050;-44
2024/03/12 03:27:37;;;;;;;;;;;;;;;15.59;53.63;100554.50;5038369;28;1894;-43
2024/03/12 03:30:03;;;;;;;;;;;;;;;18.75;46.07;100542.44;5039091;28;1206;-47
2024/03/12 03:32:29;;;;;;;;;;;;;;;17.41;48.38;100532.66;5036987;28;989;-44
2024/03/12 03:34:54;;;;;;;;;;;;;;;17.57;49.43;100529.78;5037900;28;1126;-46
2024/03/12 03:37:26;;;;;;;;;;;;;;;19.71;43.53;100524.03;5038217;28;1475;-45
2024/03/12 03:39:53;;;;;;;;;;;;;;;15.49;53.54;100529.81;5038474;28;1079;-47
2024/03/12 03:42:18;;;;;;;;;;;;;;;18.71;46.09;100529.56;5038025;28;1047;-45
2024/03/12 03:44:44;;;;;;;;;;;;;;;17.93;47.21;100526.78;5037782;28;1031;-45
2024/03/12 03:47:09;;;;;;;;;;;;;;;16.82;51.20;100539.00;5038449;28;1978;-44
2024/03/12 03:49:35;;;;;;;;;;;;;;;19.45;44.35;100554.78;5038263;28;1079;-44
2024/03/12 03:52:01;;;;;;;;;;;;;;;15.69;53.14;100562.72;5037905;28;1158;-46
2024/03/12 03:54:26;;;;;;;;;;;;;;;18.62;46.45;100566.00;5037467;28;2694;-44
2024/03/12 03:56:52;;;;;;;;;;;;;;;19.02;44.91;100548.50;5031811;28;2138;-46
2024/03/12 03:59:19;;;;;;;;;;;;;;;16.57;51.83;100536.03;5037742;28;2106;-47
2024/03/12 04:01:47;;;;;;;;;;;;;;;19.45;44.40;100540.97;5037618;28;2126;-45
2024/03/12 04:04:12;;;;;;;;;;;;;;;16.15;51.72;100555.63;5031107;28;2214;-49
2024/03/12 04:06:38;;;;;;;;;;;;;;;18.50;46.99;100564.78;5032558;28;1969;-46
2024/03/12 04:09:04;;;;;;;;;;;;;;;19.89;43.05;100547.22;5037864;28;1905;-44
2024/03/12 04:11:30;;;;;;;;;;;;;;;15.87;53.56;100533.97;5037879;28;1165;-45
2024/03/12 04:13:58;;;;;;;;;;;;;;;19.25;45.01;100535.75;5037185;28;1043;-45
2024/03/12 04:16:24;;;;;;;;;;;;;;;16.75;50.24;100520.06;5036992;28;1121;-46
2024/03/12 04:18:50;;;;;;;;;;;;;;;18.18;47.81;100516.66;5037399;28;1028;-48
2024/03/12 04:21:16;;;;;;;;;;;;;;;19.92;43.46;100508.00;5037452;28;1206;-48
2024/03/12 04:23:45;;;;;;;;;;;;;;;15.48;54.68;100518.03;5037312;28;1193;-44
2024/03/12 04:26:11;;;;;;;;;;;;;;;19.26;44.88;100513.41;5036970;28;1023;-44
2024/03/12 04:28:38;;;;;;;;;;;;;;;17.28;49.02;100503.88;5037593;28;1898;-49
2024/03/12 04:31:07;;;;;;;;;;;;;;;17.91;48.41;100515.25;5037070;28;1135;-48
2024/03/12 04:33:36;;;;;;;;;;;;;;;19.90;43.49;100514.94;5037583;28;988;-47
2024/03/12 04:36:02;;;;;;;;;;;;;;;15.49;53.86;100511.44;5037080;28;1152;-45
2024/03/12 04:38:30;;;;;;;;;;;;;;;19.09;45.49;100510.38;5037112;28;2973;-45
2024/03/12 04:40:56;;;;;;;;;;;;;;;17.85;47.65;100502.63;5037190;28;1143;-43
2024/03/12 04:43:22;;;;;;;;;;;;;;;17.40;49.74;100506.28;5037247;28;1202;-51
2024/03/12 04:45:47;;;;;;;;;;;;;;;19.78;43.70;100496.91;5036670;28;1063;-48
2024/03/12 04:48:13;;;;;;;;;;;;;;;15.64;53.18;100496.09;5036929;28;1978;-47
2024/03/12 04:50:38;;;;;;;;;;;;;;;18.63;46.63;100512.59;5036694;28;1234;-48
2024/03/12 04:53:04;;;;;;;;;;;;;;;18.51;46.11;100509.41;5035997;28;1000;-44
2024/03/12 04:55:32;;;;;;;;;;;;;;;16.74;51.74;100516.47;5035823;28;1111;-46
2024/03/12 04:57:58;;;;;;;;;;;;;;;19.62;44.07;100501.03;5036686;28;1036;-43
2024/03/12 05:00:23;;;;;;;;;;;;;;;15.98;52.29;100512.84;5032493;28;1102;-43
2024/03/12 05:02:52;;;;;;;;;;;;;;;18.05;48.34;100518.97;5027398;28;1055;-45
2024/03/12 05:05:21;;;;;;;;;;;;;;;19.08;45.05;100528.84;5036312;28;1181;-46
2024/03/12 05:07:47;;;;;;;;;;;;;;;16.39;52.59;100523.75;5035375;28;2565;-49
2024/03/12 05:10:14;;;;;;;;;;;;;;;19.40;44.63;100510.72;5031566;28;1000;-45
2024/03/12 05:12:40;;;;;;;;;;;;;;;19.34;44.33;100517.44;5016758;28;1215;-45
2024/03/12 05:15:07;;;;;;;;;;;;;;;18.42;46.66;100500.16;5033480;28;1067;-51
2024/03/12 05:17:34;;;;;;;;;;;;;;;18.06;47.55;100498.63;5035800;28;1079;-50
2024/03/12 05:19:59;;;;;;;;;;;;;;;17.85;47.92;100502.63;5030927;28;1132;-52
2024/03/12 05:22:25;;;;;;;;;;;;;;;17.67;48.54;100512.41;5028649;28;1096;-51
2024/03/12 05:24:51;;;;;;;;;;;;;;;17.49;48.69;100505.66;5036587;28;1139;-47
2024/03/12 05:27:23;;;;;;;;;;;;;;;17.22;49.28;100496.78;5036346;28;1968;-47
2024/03/12 05:29:53;;;;;;;;;;;;;;;17.08;49.75;100496.59;5035874;28;1201;-47
2024/03/12 05:32:21;;;;;;;;;;;;;;;17.04;49.84;100487.28;5035666;28;1036;-47
2024/03/12 05:34:47;;;;;;;;;;;;;;;16.86;50.14;100482.41;5036194;28;1012;-45
2024/03/12 05:37:28;;;;;;;;;;;;;;;16.85;50.14;100475.25;5029471;28;2542;-46
2024/03/12 05:48:10;;;;;;;;;;;;;;;16.25;51.21;100484.28;5035318;28;1961;-48
2024/03/12 05:50:38;;;;;;;;;;;;;;;16.08;51.69;100487.34;5035878;28;1005;-46
2024/03/12 05:53:04;;;;;;;;;;;;;;;15.99;51.96;100498.06;5036111;28;1139;-45
2024/03/12 05:55:30;;;;;;;;;;;;;;;15.91;51.69;100491.19;5035844;28;1079;-45
2024/03/12 05:57:55;;;;;;;;;;;;;;;15.88;51.68;100493.69;5035755;28;1186;-45
2024/03/12 06:00:21;;;;;;;;;;;;;;;15.84;51.73;100500.81;5030525;28;1147;-43
2024/03/12 06:02:46;;;;;;;;;;;;;;;15.68;52.24;100500.78;5016298;28;1035;-47
2024/03/12 06:05:12;;;;;;;;;;;;;;;17.00;49.70;100512.81;5034827;28;1099;-46
2024/03/12 06:07:52;;;;;;;;;;;;;;;17.34;48.44;100510.16;5039641;28;2487;-46
2024/03/12 06:10:17;;;;;;;;;;;;;;;16.52;50.60;100505.88;5039944;28;1040;-44
2024/03/12 06:12:43;;;;;;;;;;;;;;;16.29;51.08;100488.09;5028303;28;1162;-48
2024/03/12 06:15:09;;;;;;;;;;;;;;;16.03;51.52;100501.88;5038625;28;957;-47
2024/03/12 06:17:36;;;;;;;;;;;;;;;15.91;51.86;100501.34;5027056;28;1207;-46
2024/03/12 06:20:02;;;;;;;;;;;;;;;15.78;52.15;100493.63;5038391;28;1146;-45
2024/03/12 06:22:27;;;;;;;;;;;;;;;15.72;52.22;100495.56;5039954;28;1082;-46
2024/03/12 06:24:53;;;;;;;;;;;;;;;15.91;51.97;100490.38;5039646;28;1063;-45
2024/03/12 06:27:19;;;;;;;;;;;;;;;17.42;48.38;100493.06;5027904;28;1901;-44
2024/03/12 06:29:51;;;;;;;;;;;;;;;16.90;49.22;100489.81;5038769;28;1100;-49
2024/03/12 06:32:19;;;;;;;;;;;;;;;16.42;50.84;100484.78;5039617;28;999;-47
2024/03/12 06:34:45;;;;;;;;;;;;;;;16.08;51.39;100490.88;5037925;28;1326;-48
2024/03/12 06:37:11;;;;;;;;;;;;;;;15.94;51.94;100491.75;5039363;28;1106;-48
2024/03/12 06:39:37;;;;;;;;;;;;;;;15.78;52.16;100490.91;5039803;28;1043;-44
2024/03/12 06:42:02;;;;;;;;;;;;;;;15.74;52.25;100498.88;5039153;28;1230;-49
2024/03/12 06:44:28;;;;;;;;;;;;;;;17.28;48.79;100492.06;5026905;28;833;-47
2024/03/12 06:46:54;;;;;;;;;;;;;;;17.10;48.68;100505.34;5038789;28;1155;-46
2024/03/12 06:49:20;;;;;;;;;;;;;;;16.37;50.61;100492.22;5039050;28;1910;-47
2024/03/12 06:51:50;;;;;;;;;;;;;;;16.10;51.38;100498.84;5039504;28;889;-45
2024/03/12 06:54:16;;;;;;;;;;;;;;;15.94;51.75;100489.81;5026455;28;1096;-43
2024/03/12 06:56:43;;;;;;;;;;;;;;;15.78;52.34;100485.41;5038422;28;1183;-44
2024/03/12 06:59:11;;;;;;;;;;;;;;;17.14;49.06;100488.31;5032234;28;1150;-45
2024/03/12 07:01:40;;;;;;;;;;;;;;;17.20;48.72;100495.44;5031571;28;1059;-46
2024/03/12 07:04:12;;;;;;;;;;;;;;;16.54;50.41;100497.38;5030455;28;1361;-44
2024/03/12 07:06:46;;;;;;;;;;;;;;;16.13;51.46;100495.56;5038504;28;1080;-44
2024/03/12 07:09:22;;;;;;;;;;;;;;;15.95;51.88;100488.72;5035514;28;1910;-46
2024/03/12 07:11:48;;;;;;;;;;;;;;;15.83;52.15;100485.44;5028140;28;1039;-47
2024/03/12 07:14:23;;;;;;;;;;;;;;;17.19;48.85;100469.84;5038136;28;1047;-50
2024/03/12 07:16:50;;;;;;;;;;;;;;;17.27;48.48;100458.25;5030721;28;1051;-52
2024/03/12 07:19:15;;;;;;;;;;;;;;;16.53;50.50;100449.88;5037461;28;1147;-52
2024/03/12 07:21:41;;;;;;;;;;;;;;;16.27;50.81;100449.16;5038107;28;868;-50
2024/03/12 07:24:11;;;;;;;;;;;;;;;15.99;51.79;100445.09;5038429;28;1133;-48
2024/03/12 07:26:37;;;;;;;;;;;;;;;15.83;52.07;100441.59;5034765;28;1059;-49
2024/03/12 07:29:06;;;;;;;;;;;;;;;15.74;52.42;100438.56;5031674;28;1917;-46
2024/03/12 07:31:35;;;;;;;;;;;;;;;17.23;48.83;100442.63;5032044;28;1055;-45
2024/03/12 07:34:00;;;;;;;;;;;;;;;17.68;47.58;100448.03;5035631;28;936;-46
2024/03/12 07:36:26;;;;;;;;;;;;;;;16.62;50.09;100455.63;5070896;28;1071;-45
2024/03/12 07:38:52;;;;;;;;;;;;;;;16.39;50.58;100446.91;5038218;28;967;-46
2024/03/12 07:41:18;;;;;;;;;;;;;;;16.06;51.49;100438.25;5037618;28;1130;-44
2024/03/12 07:43:44;;;;;;;;;;;;;;;15.95;51.91;100433.88;5027771;28;1015;-43
2024/03/12 07:46:11;;;;;;;;;;;;;;;15.77;52.17;100434.41;5037973;28;881;-48
2024/03/12 07:48:37;;;;;;;;;;;;;;;17.20;48.86;100433.03;5038559;28;1976;-44
2024/03/12 07:51:03;;;;;;;;;;;;;;;17.35;48.16;100429.34;5026436;28;1317;-46
2024/03/12 07:53:29;;;;;;;;;;;;;;;16.60;50.22;100428.41;5038272;28;1118;-45
2024/03/12 07:55:58;;;;;;;;;;;;;;;16.24;50.97;100433.25;5034665;28;1168;-43
2024/03/12 07:58:24;;;;;;;;;;;;;;;16.05;51.35;100436.59;5036935;28;1257;-45
2024/03/12 08:00:49;;;;;;;;;;;;;;;15.80;52.16;100442.13;5033900;28;1259;-47
2024/03/12 08:03:15;;;;;;;;;;;;;;;16.21;51.24;100433.81;5027962;28;1068;-48
2024/03/12 08:05:40;;;;;;;;;;;;;;;17.64;47.63;100442.28;5024327;28;1067;-43
2024/03/12 08:08:07;;;;;;;;;;;;;;;17.29;48.40;100446.97;5037209;28;1902;-46
2024/03/12 08:10:33;;;;;;;;;;;;;;;16.58;50.02;100455.34;5034678;28;1302;-44
2024/03/12 08:12:59;;;;;;;;;;;;;;;16.29;50.88;100444.22;5035474;28;1151;-47
2024/03/12 08:15:24;;;;;;;;;;;;;;;16.02;51.84;100455.50;5036687;28;1222;-50
2024/03/12 08:17:50;;;;;;;;;;;;;;;15.89;51.98;100451.44;5058554;28;1210;-49
2024/03/12 08:20:17;;;;;;;;;;;;;;;17.15;49.18;100457.78;5037337;28;1073;-44
2024/03/12 08:22:43;;;;;;;;;;;;;;;17.48;48.02;100466.34;5036116;28;1126;-47
2024/03/12 08:25:10;;;;;;;;;;;;;;;16.56;50.23;100470.44;5032647;28;1226;-47
2024/03/12 08:27:36;;;;;;;;;;;;;;;16.25;51.00;100467.81;5034975;28;1992;-45
2024/03/12 08:30:02;;;;;;;;;;;;;;;15.98;52.00;100473.66;5036060;28;1270;-47
2024/03/12 08:32:28;;;;;;;;;;;;;;;15.95;52.07;100475.03;5033318;28;1167;-47
2024/03/12 08:34:54;;;;;;;;;;;;;;;17.47;48.16;100478.44;5025602;28;1510;-45
2024/03/12 08:37:22;;;;;;;;;;;;;;;17.03;49.12;100477.38;5030236;28;1380;-48
2024/03/12 08:39:49;;;;;;;;;;;;;;;16.48;50.72;100482.00;5037301;28;1356;-47
2024/03/12 08:42:15;;;;;;;;;;;;;;;16.12;51.34;100474.72;5036844;28;1332;-45
2024/03/12 08:44:41;;;;;;;;;;;;;;;15.95;51.81;100460.47;5034646;28;1608;-46
2024/03/12 08:47:07;;;;;;;;;;;;;;;15.78;52.39;100442.38;5035180;28;1513;-45
2024/03/12 08:49:33;;;;;;;;;;;;;;;16.64;50.53;100447.91;5036594;28;1985;-46
2024/03/12 08:51:58;;;;;;;;;;;;;;;17.86;47.26;100443.75;5033370;28;1513;-44
2024/03/12 08:54:24;;;;;;;;;;;;;;;16.98;49.43;100430.72;5025822;28;1163;-48
2024/03/12 08:56:49;;;;;;;;;;;;;;;16.47;50.81;100425.50;5034262;28;1267;-45
2024/03/12 08:59:15;;;;;;;;;;;;;;;16.18;51.46;100428.88;5029317;28;1127;-46
2024/03/12 09:01:42;;;;;;;;;;;;;;;15.99;51.95;100436.88;5035463;28;1764;-48
2024/03/12 09:04:08;;;;;;;;;;;;;;;15.78;52.14;100428.69;5035621;28;1440;-43
2024/03/12 09:06:33;;;;;;;;;;;;;;;17.17;48.99;100444.59;5028309;28;1047;-43
2024/03/12 09:08:59;;;;;;;;;;;;;;;17.50;47.87;100433.09;5031504;28;1979;-43
2024/03/12 09:11:25;;;;;;;;;;;;;;;16.68;49.95;100415.22;5035483;28;1106;-46
2024/03/12 09:13:50;;;;;;;;;;;;;;;16.23;51.21;100407.75;5033278;28;1205;-46
2024/03/12 09:16:16;;;;;;;;;;;;;;;16.16;51.44;100409.97;5036522;28;1227;-48
2024/03/12 09:18:42;;;;;;;;;;;;;;;15.88;52.19;100386.75;5036034;28;1099;-48
2024/03/12 09:21:09;;;;;;;;;;;;;;;16.02;52.07;100387.78;5036268;28;1016;-48
2024/03/12 09:23:35;;;;;;;;;;;;;;;17.53;48.29;100383.84;5032447;28;1256;-51
2024/03/12 09:26:03;;;;;;;;;;;;;;;17.34;48.65;100389.25;5027822;28;1378;-49
2024/03/12 09:28:29;;;;;;;;;;;;;;;16.68;50.05;100366.63;5032755;28;1973;-46
2024/03/12 09:30:55;;;;;;;;;;;;;;;16.25;51.46;100385.50;5027020;28;1297;-46
2024/03/12 09:33:20;;;;;;;;;;;;;;;16.12;51.82;100410.78;5030725;28;1318;-47
2024/03/12 09:35:48;;;;;;;;;;;;;;;15.82;52.36;100427.06;5027491;28;1281;-45
2024/03/12 09:38:14;;;;;;;;;;;;;;;16.64;50.74;100430.63;5030311;28;1333;-48
2024/03/12 09:40:42;;;;;;;;;;;;;;;17.87;47.49;100434.41;5025857;28;1195;-50
2024/03/12 09:43:08;;;;;;;;;;;;;;;17.01;49.44;100430.16;5023819;28;1379;-45
2024/03/12 09:45:34;;;;;;;;;;;;;;;16.41;51.17;100428.25;5028349;28;1353;-45
2024/03/12 09:48:00;;;;;;;;;;;;;;;16.22;51.47;100419.00;5033965;28;1902;-48
2024/03/12 09:50:29;;;;;;;;;;;;;;;16.02;51.83;100431.66;5027478;28;1341;-46
2024/03/12 09:52:54;;;;;;;;;;;;;;;15.88;52.04;100430.63;5025078;28;1297;-44
2024/03/12 09:55:21;;;;;;;;;;;;;;;16.00;52.12;100425.63;5028146;28;1332;-48
2024/03/12 09:57:46;;;;;;;;;;;;;;;17.50;48.46;100417.44;5029952;28;1230;-46
2024/03/12 10:00:18;;;;;;;;;;;;;;;17.31;48.62;100402.75;5022933;28;1178;-48
2024/03/12 10:02:49;;;;;;;;;;;;;;;16.50;50.96;100394.72;5034817;28;1106;-45
2024/03/12 10:05:15;;;;;;;;;;;;;;;16.18;51.63;100395.97;5055578;28;2212;-46
2024/03/12 10:07:59;;;;;;;;;;;;;;;15.99;52.07;100404.81;5033204;28;1901;-45
2024/03/12 10:10:26;;;;;;;;;;;;;;;16.41;51.55;100397.22;5034997;28;1202;-50
2024/03/12 10:12:51;;;;;;;;;;;;;;;17.77;48.02;100396.81;5033941;28;1289;-42
2024/03/12 10:15:17;;;;;;;;;;;;;;;17.36;48.68;100392.53;5035914;28;1395;-47
2024/03/12 10:17:42;;;;;;;;;;;;;;;16.72;50.45;100384.16;5034426;28;1192;-51
2024/03/12 10:20:15;;;;;;;;;;;;;;;16.34;51.42;100386.56;5066871;28;1159;-49
2024/03/12 10:22:42;;;;;;;;;;;;;;;16.05;52.07;100395.44;5035534;28;1027;-45
2024/03/12 10:25:10;;;;;;;;;;;;;;;15.89;52.42;100400.19;5027230;28;1100;-47
2024/03/12 10:27:50;;;;;;;;;;;;;;;15.72;52.74;100405.94;5034058;28;1984;-47
2024/03/12 10:30:25;;;;;;;;;;;;;;;17.19;49.52;100398.41;5031516;28;1200;-43
2024/03/12 10:32:51;;;;;;;;;;;;;;;17.56;48.46;100391.50;5032677;28;1250;-44
2024/03/12 10:35:19;;;;;;;;;;;;;;;16.63;50.59;100385.06;5031356;28;1043;-51
2024/03/12 10:37:46;;;;;;;;;;;;;;;16.26;51.48;100387.16;5027040;28;1218;-49
2024/03/12 10:40:12;;;;;;;;;;;;;;;15.99;52.25;100388.34;5014505;28;1157;-49
2024/03/12 10:42:37;;;;;;;;;;;;;;;15.99;52.39;100380.13;5029213;28;1087;-45
2024/03/12 10:45:05;;;;;;;;;;;;;;;16.15;52.24;100363.63;5016146;28;1095;-46
2024/03/12 10:47:30;;;;;;;;;;;;;;;17.59;48.55;100341.44;5030324;28;1902;-48
2024/03/12 10:49:57;;;;;;;;;;;;;;;17.13;49.44;100321.84;5031328;28;1228;-43
2024/03/12 10:52:24;;;;;;;;;;;;;;;16.47;51.25;100322.00;5037295;28;1416;-44
2024/03/12 10:54:49;;;;;;;;;;;;;;;16.27;51.72;100338.59;5069977;28;1391;-44
2024/03/12 10:57:14;;;;;;;;;;;;;;;16.06;52.19;100355.13;5033450;28;1258;-45
2024/03/12 10:59:43;;;;;;;;;;;;;;;16.77;50.63;100369.56;5027331;28;1073;-49
2024/03/12 11:02:08;;;;;;;;;;;;;;;17.83;47.87;100368.13;5037145;28;1060;-47
2024/03/12 11:04:35;;;;;;;;;;;;;;;16.83;50.26;100384.09;5038584;28;1183;-49
2024/03/12 11:07:01;;;;;;;;;;;;;;;16.42;51.23;100376.91;5034095;28;1011;-53
2024/03/12 11:09:28;;;;;;;;;;;;;;;16.16;51.98;100351.53;5038233;28;1901;-48
2024/03/12 11:11:54;;;;;;;;;;;;;;;15.97;52.22;100362.31;5037348;28;865;-45
2024/03/12 11:14:20;;;;;;;;;;;;;;;15.94;52.42;100358.19;5032907;28;1146;-45
2024/03/12 11:16:46;;;;;;;;;;;;;;;17.49;48.81;100354.47;5038311;28;1056;-47
2024/03/12 11:19:24;;;;;;;;;;;;;;;17.30;48.79;100355.19;5032523;28;1047;-44
2024/03/12 11:21:50;;;;;;;;;;;;;;;16.50;50.98;100335.16;5068219;28;1391;-45
2024/03/12 11:24:25;;;;;;;;;;;;;;;16.21;51.61;100308.41;5038685;28;1030;-45
2024/03/12 11:26:51;;;;;;;;;;;;;;;15.99;52.38;100322.53;5038243;28;1146;-44
2024/03/12 11:29:17;;;;;;;;;;;;;;;15.85;52.75;100346.16;5038103;28;1898;-45
2024/03/12 11:31:43;;;;;;;;;;;;;;;16.84;50.34;100337.13;5038327;28;1225;-44
2024/03/12 11:34:10;;;;;;;;;;;;;;;17.97;47.60;100335.28;5028538;28;1178;-47
2024/03/12 11:36:39;;;;;;;;;;;;;;;16.93;50.13;100334.63;5038887;28;1048;-44
2024/03/12 11:39:11;;;;;;;;;;;;;;;16.45;51.17;100323.41;5037589;28;1352;-45
2024/03/12 11:41:55;;;;;;;;;;;;;;;16.22;52.05;100322.97;5038011;28;1154;-45
2024/03/12 11:44:40;;;;;;;;;;;;;;;16.06;52.07;100316.72;5031655;28;1408;-44
2024/03/12 11:47:06;;;;;;;;;;;;;;;15.79;52.73;100295.16;5027536;28;1074;-46
2024/03/12 11:49:32;;;;;;;;;;;;;;;17.00;50.26;100290.34;5037358;28;1978;-49
2024/03/12 11:51:57;;;;;;;;;;;;;;;17.82;47.77;100277.69;5038462;28;925;-46
2024/03/12 11:54:38;;;;;;;;;;;;;;;16.80;50.41;100277.59;5036575;28;1083;-49
2024/03/12 11:57:04;;;;;;;;;;;;;;;16.38;51.47;100280.63;5037994;28;1255;-47
2024/03/12 11:59:29;;;;;;;;;;;;;;;16.18;51.80;100289.78;5037513;28;924;-44
2024/03/12 12:01:55;;;;;;;;;;;;;;;15.95;52.29;100294.03;5038071;28;1067;-48
2024/03/12 12:04:22;;;;;;;;;;;;;;;15.83;52.74;100291.59;5038279;28;1079;-57
2024/03/12 12:06:47;;;;;;;;;;;;;;;17.02;50.22;100290.88;5035805;28;1325;-45
2024/03/12 12:09:14;;;;;;;;;;;;;;;17.77;48.10;100286.81;5067195;28;1918;-48
2024/03/12 12:11:40;;;;;;;;;;;;;;;16.75;50.77;100284.75;5035529;28;1183;-45
2024/03/12 12:14:08;;;;;;;;;;;;;;;16.30;51.88;100283.13;5034125;28;1309;-44
2024/03/12 12:16:33;;;;;;;;;;;;;;;16.19;52.17;100277.72;5036094;28;1171;-45
2024/03/12 12:19:05;;;;;;;;;;;;;;;15.97;52.61;100280.84;5035637;28;1099;-48
2024/03/12 12:21:31;;;;;;;;;;;;;;;15.84;52.96;100287.75;5035381;28;1095;-47
2024/03/12 12:23:58;;;;;;;;;;;;;;;17.39;49.48;100279.25;5035429;28;1067;-47
2024/03/12 12:26:24;;;;;;;;;;;;;;;17.22;49.75;100281.63;5036047;28;1376;-43
2024/03/12 12:28:52;;;;;;;;;;;;;;;16.56;51.20;100281.91;5035951;28;1985;-49
2024/03/12 12:31:18;;;;;;;;;;;;;;;16.24;52.02;100280.44;5034479;28;1264;-44
2024/03/12 12:33:45;;;;;;;;;;;;;;;16.02;52.77;100283.56;5066650;28;1293;-49
2024/03/12 12:36:12;;;;;;;;;;;;;;;16.11;52.92;100283.00;5036185;28;1317;-47
2024/03/12 12:38:38;;;;;;;;;;;;;;;17.61;48.81;100286.16;5067899;28;1305;-43
2024/03/12 12:41:06;;;;;;;;;;;;;;;17.15;49.83;100270.16;5066985;28;1336;-42
2024/03/12 12:43:32;;;;;;;;;;;;;;;16.41;51.87;100258.13;5062984;28;1270;-46
2024/03/12 12:46:05;;;;;;;;;;;;;;;16.22;52.11;100248.91;5029566;28;1212;-45
2024/03/12 12:48:31;;;;;;;;;;;;;;;16.04;52.65;100251.19;5036554;28;1985;-47
2024/03/12 12:50:59;;;;;;;;;;;;;;;16.38;52.21;100250.47;5023722;28;1035;-46
2024/03/12 12:53:25;;;;;;;;;;;;;;;17.76;48.47;100252.97;5024240;28;1024;-44
2024/03/12 12:56:01;;;;;;;;;;;;;;;16.94;50.58;100253.88;5034168;28;1267;-45